sensor_id;sensor_type;location;lat;lon;timestamp;P1;durP1;ratioP1;P2;durP2;ratioP2
2029;SDS011;1020;48.854;8.830;2022-10-17T00:01:16;2.63;;;2.43;;
2029;SDS011;1020;48.854;8.830;2022-10-17T00:03:43;3.67;;;2.90;;
2029;SDS011;1020;48.854;8.830;2022-10-17T00:06:11;2.70;;;2.50;;
2029;SDS011;1020;48.854;8.830;2022-10-17T00:08:40;2.73;;;2.53;;
2029;SDS011;1020;48.854;8.830;2022-10-17T00:11:12;2.83;;;2.47;;
2029;SDS011;1020;48.854;8.830;2022-10-17T00:13:40;2.40;;;2.27;;
2029;SDS011;1020;48.854;8.830;2022-10-17T00:16:07;3.00;;;2.80;;
2029;SDS011;1020;48.854;8.830;2022-10-17T00:18:34;2.47;;;2.20;;
2029;SDS011;1020;48.854;8.830;2022-10-17T00:21:01;2.70;;;2.43;;
2029;SDS011;1020;48.854;8.830;2022-10-17T00:23:29;3.10;;;2.33;;
2029;SDS011;1020;48.854;8.830;2022-10-17T00:25:57;2.63;;;2.40;;
2029;SDS011;1020;48.854;8.830;2022-10-17T00:28:24;2.47;;;2.27;;
2029;SDS011;1020;48.854;8.830;2022-10-17T00:30:54;3.03;;;2.83;;
2029;SDS011;1020;48.854;8.830;2022-10-17T00:33:21;2.70;;;2.50;;
2029;SDS011;1020;48.854;8.830;2022-10-17T00:35:48;6.00;;;2.80;;
2029;SDS011;1020;48.854;8.830;2022-10-17T00:38:15;2.83;;;2.63;;
2029;SDS011;1020;48.854;8.830;2022-10-17T00:40:43;3.10;;;2.50;;
2029;SDS011;1020;48.854;8.830;2022-10-17T00:43:12;3.47;;;3.17;;
2029;SDS011;1020;48.854;8.830;2022-10-17T00:45:41;5.33;;;2.73;;
2029;SDS011;1020;48.854;8.830;2022-10-17T00:48:08;3.00;;;2.80;;
2029;SDS011;1020;48.854;8.830;2022-10-17T00:50:37;3.20;;;2.83;;
2029;SDS011;1020;48.854;8.830;2022-10-17T00:53:06;4.07;;;2.93;;
2029;SDS011;1020;48.854;8.830;2022-10-17T00:55:34;3.70;;;2.23;;
2029;SDS011;1020;48.854;8.830;2022-10-17T00:58:05;2.57;;;2.40;;
2029;SDS011;1020;48.854;8.830;2022-10-17T01:00:32;2.40;;;2.30;;
2029;SDS011;1020;48.854;8.830;2022-10-17T01:03:00;3.07;;;2.87;;
2029;SDS011;1020;48.854;8.830;2022-10-17T01:05:27;3.00;;;2.40;;
2029;SDS011;1020;48.854;8.830;2022-10-17T01:07:55;3.37;;;3.00;;
2029;SDS011;1020;48.854;8.830;2022-10-17T01:10:22;2.90;;;2.70;;
2029;SDS011;1020;48.854;8.830;2022-10-17T01:12:59;6.03;;;3.10;;
2029;SDS011;1020;48.854;8.830;2022-10-17T01:15:37;4.07;;;2.50;;
2029;SDS011;1020;48.854;8.830;2022-10-17T01:18:12;3.10;;;2.80;;
2029;SDS011;1020;48.854;8.830;2022-10-17T01:21:10;3.50;;;3.00;;
2029;SDS011;1020;48.854;8.830;2022-10-17T01:26:57;3.40;;;2.87;;
2029;SDS011;1020;48.854;8.830;2022-10-17T01:29:41;3.63;;;3.07;;
2029;SDS011;1020;48.854;8.830;2022-10-17T01:32:21;3.90;;;3.20;;
2029;SDS011;1020;48.854;8.830;2022-10-17T01:34:54;3.33;;;3.03;;
2029;SDS011;1020;48.854;8.830;2022-10-17T01:37:26;4.83;;;2.73;;
2029;SDS011;1020;48.854;8.830;2022-10-17T01:39:57;4.80;;;3.00;;
2029;SDS011;1020;48.854;8.830;2022-10-17T01:42:30;3.47;;;2.93;;
2029;SDS011;1020;48.854;8.830;2022-10-17T01:45:01;2.90;;;2.70;;
2029;SDS011;1020;48.854;8.830;2022-10-17T01:47:33;4.90;;;3.00;;
2029;SDS011;1020;48.854;8.830;2022-10-17T01:50:02;3.53;;;3.00;;
2029;SDS011;1020;48.854;8.830;2022-10-17T01:52:34;3.00;;;2.67;;
2029;SDS011;1020;48.854;8.830;2022-10-17T01:55:05;3.47;;;3.17;;
2029;SDS011;1020;48.854;8.830;2022-10-17T01:57:36;3.10;;;2.80;;
2029;SDS011;1020;48.854;8.830;2022-10-17T02:00:07;4.40;;;3.07;;
2029;SDS011;1020;48.854;8.830;2022-10-17T02:02:39;2.87;;;2.57;;
2029;SDS011;1020;48.854;8.830;2022-10-17T02:05:08;5.17;;;3.43;;
2029;SDS011;1020;48.854;8.830;2022-10-17T02:07:35;3.03;;;2.83;;
2029;SDS011;1020;48.854;8.830;2022-10-17T02:10:03;5.03;;;3.60;;
2029;SDS011;1020;48.854;8.830;2022-10-17T02:12:41;3.50;;;3.20;;
2029;SDS011;1020;48.854;8.830;2022-10-17T02:15:22;3.73;;;3.43;;
2029;SDS011;1020;48.854;8.830;2022-10-17T02:18:21;3.53;;;3.00;;
2029;SDS011;1020;48.854;8.830;2022-10-17T02:21:05;3.90;;;3.00;;
2029;SDS011;1020;48.854;8.830;2022-10-17T02:23:36;3.37;;;3.10;;
2029;SDS011;1020;48.854;8.830;2022-10-17T02:26:14;4.80;;;3.30;;
2029;SDS011;1020;48.854;8.830;2022-10-17T02:28:46;5.03;;;3.03;;
2029;SDS011;1020;48.854;8.830;2022-10-17T02:31:23;3.80;;;3.50;;
2029;SDS011;1020;48.854;8.830;2022-10-17T02:33:55;4.80;;;3.20;;
2029;SDS011;1020;48.854;8.830;2022-10-17T02:36:25;4.53;;;3.27;;
2029;SDS011;1020;48.854;8.830;2022-10-17T02:38:55;3.60;;;3.00;;
2029;SDS011;1020;48.854;8.830;2022-10-17T02:41:24;3.27;;;3.03;;
2029;SDS011;1020;48.854;8.830;2022-10-17T02:43:51;3.53;;;3.20;;
2029;SDS011;1020;48.854;8.830;2022-10-17T02:46:19;3.80;;;2.83;;
2029;SDS011;1020;48.854;8.830;2022-10-17T02:48:49;5.63;;;3.17;;
2029;SDS011;1020;48.854;8.830;2022-10-17T02:51:22;5.80;;;3.50;;
2029;SDS011;1020;48.854;8.830;2022-10-17T02:53:54;3.00;;;2.80;;
2029;SDS011;1020;48.854;8.830;2022-10-17T02:56:29;5.77;;;3.03;;
2029;SDS011;1020;48.854;8.830;2022-10-17T02:59:00;3.63;;;3.30;;
2029;SDS011;1020;48.854;8.830;2022-10-17T03:01:30;3.87;;;3.07;;
2029;SDS011;1020;48.854;8.830;2022-10-17T03:04:03;4.50;;;3.83;;
2029;SDS011;1020;48.854;8.830;2022-10-17T03:06:32;3.93;;;3.53;;
2029;SDS011;1020;48.854;8.830;2022-10-17T03:08:59;3.97;;;3.63;;
2029;SDS011;1020;48.854;8.830;2022-10-17T03:11:26;3.80;;;3.50;;
2029;SDS011;1020;48.854;8.830;2022-10-17T03:13:53;3.73;;;3.43;;
2029;SDS011;1020;48.854;8.830;2022-10-17T03:16:20;4.00;;;3.33;;
2029;SDS011;1020;48.854;8.830;2022-10-17T03:18:47;3.80;;;3.50;;
2029;SDS011;1020;48.854;8.830;2022-10-17T03:21:14;4.50;;;3.00;;
2029;SDS011;1020;48.854;8.830;2022-10-17T03:23:42;3.70;;;3.50;;
2029;SDS011;1020;48.854;8.830;2022-10-17T03:26:09;2.93;;;2.73;;
2029;SDS011;1020;48.854;8.830;2022-10-17T03:28:36;3.60;;;3.30;;
2029;SDS011;1020;48.854;8.830;2022-10-17T03:31:06;3.70;;;3.40;;
2029;SDS011;1020;48.854;8.830;2022-10-17T03:33:34;3.43;;;3.23;;
2029;SDS011;1020;48.854;8.830;2022-10-17T03:36:04;4.70;;;3.30;;
2029;SDS011;1020;48.854;8.830;2022-10-17T03:38:31;3.80;;;3.50;;
2029;SDS011;1020;48.854;8.830;2022-10-17T03:40:59;3.60;;;3.27;;
2029;SDS011;1020;48.854;8.830;2022-10-17T03:43:26;4.30;;;3.57;;
2029;SDS011;1020;48.854;8.830;2022-10-17T03:45:53;3.57;;;3.27;;
2029;SDS011;1020;48.854;8.830;2022-10-17T03:48:21;3.10;;;2.80;;
2029;SDS011;1020;48.854;8.830;2022-10-17T03:50:48;4.40;;;3.17;;
2029;SDS011;1020;48.854;8.830;2022-10-17T03:53:15;3.40;;;3.10;;
2029;SDS011;1020;48.854;8.830;2022-10-17T03:55:42;3.50;;;3.30;;
2029;SDS011;1020;48.854;8.830;2022-10-17T03:58:10;4.20;;;3.80;;
2029;SDS011;1020;48.854;8.830;2022-10-17T04:00:37;3.50;;;3.30;;
2029;SDS011;1020;48.854;8.830;2022-10-17T04:03:03;4.83;;;4.03;;
2029;SDS011;1020;48.854;8.830;2022-10-17T04:05:30;8.00;;;4.90;;
2029;SDS011;1020;48.854;8.830;2022-10-17T04:07:57;5.67;;;4.37;;
2029;SDS011;1020;48.854;8.830;2022-10-17T04:10:24;7.23;;;5.63;;
2029;SDS011;1020;48.854;8.830;2022-10-17T04:12:50;4.30;;;4.00;;
2029;SDS011;1020;48.854;8.830;2022-10-17T04:15:18;5.83;;;4.60;;
2029;SDS011;1020;48.854;8.830;2022-10-17T04:17:45;4.87;;;4.23;;
2029;SDS011;1020;48.854;8.830;2022-10-17T04:20:12;4.83;;;4.10;;
2029;SDS011;1020;48.854;8.830;2022-10-17T04:22:39;4.93;;;4.07;;
2029;SDS011;1020;48.854;8.830;2022-10-17T04:25:05;5.03;;;4.37;;
2029;SDS011;1020;48.854;8.830;2022-10-17T04:27:32;7.60;;;5.03;;
2029;SDS011;1020;48.854;8.830;2022-10-17T04:29:59;3.90;;;3.03;;
2029;SDS011;1020;48.854;8.830;2022-10-17T04:32:27;4.70;;;4.20;;
2029;SDS011;1020;48.854;8.830;2022-10-17T04:34:54;5.50;;;3.80;;
2029;SDS011;1020;48.854;8.830;2022-10-17T04:37:21;8.07;;;4.20;;
2029;SDS011;1020;48.854;8.830;2022-10-17T04:39:47;5.23;;;4.40;;
2029;SDS011;1020;48.854;8.830;2022-10-17T04:42:14;6.53;;;3.93;;
2029;SDS011;1020;48.854;8.830;2022-10-17T04:44:41;3.73;;;3.43;;
2029;SDS011;1020;48.854;8.830;2022-10-17T04:47:08;4.70;;;3.67;;
2029;SDS011;1020;48.854;8.830;2022-10-17T04:49:36;4.60;;;3.53;;
2029;SDS011;1020;48.854;8.830;2022-10-17T04:52:03;4.70;;;3.40;;
2029;SDS011;1020;48.854;8.830;2022-10-17T04:54:30;12.23;;;4.43;;
2029;SDS011;1020;48.854;8.830;2022-10-17T04:56:56;4.87;;;4.10;;
2029;SDS011;1020;48.854;8.830;2022-10-17T04:59:23;4.93;;;3.53;;
2029;SDS011;1020;48.854;8.830;2022-10-17T05:01:50;3.77;;;3.47;;
2029;SDS011;1020;48.854;8.830;2022-10-17T05:04:17;5.53;;;4.27;;
2029;SDS011;1020;48.854;8.830;2022-10-17T05:06:45;4.33;;;4.03;;
2029;SDS011;1020;48.854;8.830;2022-10-17T05:09:11;4.50;;;4.20;;
2029;SDS011;1020;48.854;8.830;2022-10-17T05:11:38;3.90;;;3.60;;
2029;SDS011;1020;48.854;8.830;2022-10-17T05:14:05;3.80;;;3.50;;
2029;SDS011;1020;48.854;8.830;2022-10-17T05:16:32;4.90;;;3.67;;
2029;SDS011;1020;48.854;8.830;2022-10-17T05:18:59;4.30;;;3.90;;
2029;SDS011;1020;48.854;8.830;2022-10-17T05:21:27;4.20;;;3.80;;
2029;SDS011;1020;48.854;8.830;2022-10-17T05:23:56;3.80;;;3.50;;
2029;SDS011;1020;48.854;8.830;2022-10-17T05:26:24;4.00;;;3.60;;
2029;SDS011;1020;48.854;8.830;2022-10-17T05:28:51;4.97;;;3.63;;
2029;SDS011;1020;48.854;8.830;2022-10-17T05:31:18;5.17;;;3.83;;
2029;SDS011;1020;48.854;8.830;2022-10-17T05:33:45;4.80;;;4.30;;
2029;SDS011;1020;48.854;8.830;2022-10-17T05:36:12;4.53;;;4.13;;
2029;SDS011;1020;48.854;8.830;2022-10-17T05:38:39;6.13;;;5.20;;
2029;SDS011;1020;48.854;8.830;2022-10-17T05:41:08;5.47;;;4.70;;
2029;SDS011;1020;48.854;8.830;2022-10-17T05:43:35;5.17;;;4.77;;
2029;SDS011;1020;48.854;8.830;2022-10-17T05:46:03;5.67;;;5.27;;
2029;SDS011;1020;48.854;8.830;2022-10-17T05:48:30;6.97;;;4.70;;
2029;SDS011;1020;48.854;8.830;2022-10-17T05:50:58;4.87;;;4.47;;
2029;SDS011;1020;48.854;8.830;2022-10-17T05:53:26;4.10;;;3.70;;
2029;SDS011;1020;48.854;8.830;2022-10-17T05:55:56;4.60;;;3.67;;
2029;SDS011;1020;48.854;8.830;2022-10-17T05:58:25;4.30;;;3.90;;
2029;SDS011;1020;48.854;8.830;2022-10-17T06:00:56;5.40;;;5.00;;
2029;SDS011;1020;48.854;8.830;2022-10-17T06:03:23;5.03;;;4.53;;
2029;SDS011;1020;48.854;8.830;2022-10-17T06:05:50;4.30;;;4.00;;
2029;SDS011;1020;48.854;8.830;2022-10-17T06:08:16;4.97;;;4.47;;
2029;SDS011;1020;48.854;8.830;2022-10-17T06:10:45;8.03;;;4.17;;
2029;SDS011;1020;48.854;8.830;2022-10-17T06:13:13;3.80;;;3.50;;
2029;SDS011;1020;48.854;8.830;2022-10-17T06:15:41;4.10;;;3.80;;
2029;SDS011;1020;48.854;8.830;2022-10-17T06:18:08;3.10;;;2.90;;
2029;SDS011;1020;48.854;8.830;2022-10-17T06:20:35;4.20;;;3.53;;
2029;SDS011;1020;48.854;8.830;2022-10-17T06:23:03;3.77;;;3.57;;
2029;SDS011;1020;48.854;8.830;2022-10-17T06:25:30;4.80;;;4.50;;
2029;SDS011;1020;48.854;8.830;2022-10-17T06:27:57;4.60;;;4.30;;
2029;SDS011;1020;48.854;8.830;2022-10-17T06:30:24;4.83;;;3.90;;
2029;SDS011;1020;48.854;8.830;2022-10-17T06:32:53;4.30;;;3.60;;
2029;SDS011;1020;48.854;8.830;2022-10-17T06:35:20;6.00;;;4.47;;
2029;SDS011;1020;48.854;8.830;2022-10-17T06:37:47;5.20;;;4.70;;
2029;SDS011;1020;48.854;8.830;2022-10-17T06:40:13;5.03;;;4.47;;
2029;SDS011;1020;48.854;8.830;2022-10-17T06:42:41;4.60;;;3.83;;
2029;SDS011;1020;48.854;8.830;2022-10-17T06:45:08;3.37;;;3.17;;
2029;SDS011;1020;48.854;8.830;2022-10-17T06:47:36;3.90;;;3.40;;
2029;SDS011;1020;48.854;8.830;2022-10-17T06:50:05;4.40;;;3.27;;
2029;SDS011;1020;48.854;8.830;2022-10-17T06:52:32;3.60;;;3.40;;
2029;SDS011;1020;48.854;8.830;2022-10-17T06:54:59;3.07;;;2.87;;
2029;SDS011;1020;48.854;8.830;2022-10-17T06:57:26;4.20;;;3.60;;
2029;SDS011;1020;48.854;8.830;2022-10-17T06:59:53;4.10;;;3.70;;
2029;SDS011;1020;48.854;8.830;2022-10-17T07:02:21;3.20;;;2.87;;
2029;SDS011;1020;48.854;8.830;2022-10-17T07:04:48;6.60;;;3.30;;
2029;SDS011;1020;48.854;8.830;2022-10-17T07:07:16;4.03;;;3.00;;
2029;SDS011;1020;48.854;8.830;2022-10-17T07:09:43;4.43;;;3.50;;
2029;SDS011;1020;48.854;8.830;2022-10-17T07:12:10;3.90;;;2.90;;
2029;SDS011;1020;48.854;8.830;2022-10-17T07:14:37;2.90;;;2.63;;
2029;SDS011;1020;48.854;8.830;2022-10-17T07:17:04;3.70;;;3.10;;
2029;SDS011;1020;48.854;8.830;2022-10-17T07:19:30;2.93;;;2.30;;
2029;SDS011;1020;48.854;8.830;2022-10-17T07:21:57;8.23;;;3.27;;
2029;SDS011;1020;48.854;8.830;2022-10-17T07:24:26;4.40;;;2.40;;
2029;SDS011;1020;48.854;8.830;2022-10-17T07:26:53;2.27;;;2.17;;
2029;SDS011;1020;48.854;8.830;2022-10-17T07:29:19;2.70;;;2.50;;
2029;SDS011;1020;48.854;8.830;2022-10-17T07:31:46;2.37;;;2.17;;
2029;SDS011;1020;48.854;8.830;2022-10-17T07:34:14;3.00;;;2.50;;
2029;SDS011;1020;48.854;8.830;2022-10-17T07:36:41;2.43;;;2.27;;
2029;SDS011;1020;48.854;8.830;2022-10-17T07:39:07;2.00;;;1.90;;
2029;SDS011;1020;48.854;8.830;2022-10-17T07:41:36;2.53;;;2.33;;
2029;SDS011;1020;48.854;8.830;2022-10-17T07:44:03;2.87;;;2.53;;
2029;SDS011;1020;48.854;8.830;2022-10-17T07:46:30;2.73;;;2.40;;
2029;SDS011;1020;48.854;8.830;2022-10-17T07:48:57;2.83;;;2.63;;
2029;SDS011;1020;48.854;8.830;2022-10-17T07:51:23;3.13;;;2.30;;
2029;SDS011;1020;48.854;8.830;2022-10-17T07:53:51;2.63;;;2.43;;
2029;SDS011;1020;48.854;8.830;2022-10-17T07:56:18;3.50;;;2.47;;
2029;SDS011;1020;48.854;8.830;2022-10-17T07:58:50;2.90;;;2.50;;
2029;SDS011;1020;48.854;8.830;2022-10-17T08:01:17;5.30;;;2.30;;
2029;SDS011;1020;48.854;8.830;2022-10-17T08:03:44;4.57;;;2.30;;
2029;SDS011;1020;48.854;8.830;2022-10-17T08:06:12;4.43;;;2.47;;
2029;SDS011;1020;48.854;8.830;2022-10-17T08:08:39;4.07;;;3.73;;
2029;SDS011;1020;48.854;8.830;2022-10-17T08:11:07;7.20;;;3.13;;
2029;SDS011;1020;48.854;8.830;2022-10-17T08:13:36;2.70;;;2.00;;
2029;SDS011;1020;48.854;8.830;2022-10-17T08:16:05;2.10;;;2.00;;
2029;SDS011;1020;48.854;8.830;2022-10-17T08:18:33;3.63;;;2.47;;
2029;SDS011;1020;48.854;8.830;2022-10-17T08:21:00;5.77;;;2.57;;
2029;SDS011;1020;48.854;8.830;2022-10-17T08:23:30;2.70;;;2.30;;
2029;SDS011;1020;48.854;8.830;2022-10-17T08:25:57;3.40;;;1.90;;
2029;SDS011;1020;48.854;8.830;2022-10-17T08:28:24;2.90;;;2.40;;
2029;SDS011;1020;48.854;8.830;2022-10-17T08:30:51;2.60;;;2.40;;
2029;SDS011;1020;48.854;8.830;2022-10-17T08:33:19;2.30;;;2.20;;
2029;SDS011;1020;48.854;8.830;2022-10-17T08:35:46;2.53;;;2.40;;
2029;SDS011;1020;48.854;8.830;2022-10-17T08:38:13;2.50;;;2.20;;
2029;SDS011;1020;48.854;8.830;2022-10-17T08:40:39;2.90;;;2.37;;
2029;SDS011;1020;48.854;8.830;2022-10-17T08:45:57;3.03;;;2.23;;
2029;SDS011;1020;48.854;8.830;2022-10-17T08:48:29;2.30;;;2.20;;
2029;SDS011;1020;48.854;8.830;2022-10-17T08:51:00;3.27;;;2.57;;
2029;SDS011;1020;48.854;8.830;2022-10-17T08:53:32;1.83;;;1.73;;
2029;SDS011;1020;48.854;8.830;2022-10-17T08:56:05;5.27;;;2.10;;
2029;SDS011;1020;48.854;8.830;2022-10-17T08:58:38;2.13;;;2.00;;
2029;SDS011;1020;48.854;8.830;2022-10-17T09:01:08;2.40;;;2.20;;
2029;SDS011;1020;48.854;8.830;2022-10-17T09:03:47;2.13;;;1.93;;
2029;SDS011;1020;48.854;8.830;2022-10-17T09:06:25;2.80;;;2.60;;
2029;SDS011;1020;48.854;8.830;2022-10-17T09:08:59;2.10;;;2.00;;
2029;SDS011;1020;48.854;8.830;2022-10-17T09:11:38;7.50;;;2.40;;
2029;SDS011;1020;48.854;8.830;2022-10-17T09:14:20;2.80;;;2.00;;
2029;SDS011;1020;48.854;8.830;2022-10-17T09:17:04;2.50;;;2.17;;
2029;SDS011;1020;48.854;8.830;2022-10-17T09:19:40;3.07;;;1.73;;
2029;SDS011;1020;48.854;8.830;2022-10-17T09:22:12;4.03;;;2.23;;
2029;SDS011;1020;48.854;8.830;2022-10-17T09:24:45;3.17;;;2.20;;
2029;SDS011;1020;48.854;8.830;2022-10-17T09:27:19;4.93;;;1.77;;
2029;SDS011;1020;48.854;8.830;2022-10-17T09:29:49;5.03;;;2.00;;
2029;SDS011;1020;48.854;8.830;2022-10-17T09:32:20;1.87;;;1.77;;
2029;SDS011;1020;48.854;8.830;2022-10-17T09:34:51;2.03;;;1.83;;
2029;SDS011;1020;48.854;8.830;2022-10-17T09:37:19;2.57;;;2.10;;
2029;SDS011;1020;48.854;8.830;2022-10-17T09:39:51;1.70;;;1.60;;
2029;SDS011;1020;48.854;8.830;2022-10-17T09:42:19;3.63;;;2.07;;
2029;SDS011;1020;48.854;8.830;2022-10-17T09:44:51;3.33;;;1.60;;
2029;SDS011;1020;48.854;8.830;2022-10-17T09:47:27;3.10;;;2.13;;
2029;SDS011;1020;48.854;8.830;2022-10-17T09:50:00;3.53;;;2.10;;
2029;SDS011;1020;48.854;8.830;2022-10-17T09:52:28;2.17;;;2.07;;
2029;SDS011;1020;48.854;8.830;2022-10-17T09:54:59;2.30;;;2.10;;
2029;SDS011;1020;48.854;8.830;2022-10-17T09:57:49;1.80;;;1.70;;
2029;SDS011;1020;48.854;8.830;2022-10-17T10:00:19;2.27;;;1.83;;
2029;SDS011;1020;48.854;8.830;2022-10-17T10:02:47;3.63;;;1.80;;
2029;SDS011;1020;48.854;8.830;2022-10-17T10:05:16;2.20;;;1.87;;
2029;SDS011;1020;48.854;8.830;2022-10-17T10:07:45;1.70;;;1.60;;
2029;SDS011;1020;48.854;8.830;2022-10-17T10:10:28;1.93;;;1.83;;
2029;SDS011;1020;48.854;8.830;2022-10-17T10:13:06;1.70;;;1.60;;
2029;SDS011;1020;48.854;8.830;2022-10-17T10:15:44;2.93;;;2.03;;
2029;SDS011;1020;48.854;8.830;2022-10-17T10:18:28;3.27;;;2.00;;
2029;SDS011;1020;48.854;8.830;2022-10-17T10:21:05;2.13;;;1.90;;
2029;SDS011;1020;48.854;8.830;2022-10-17T10:23:35;3.33;;;2.27;;
2029;SDS011;1020;48.854;8.830;2022-10-17T10:26:05;4.57;;;2.00;;
2029;SDS011;1020;48.854;8.830;2022-10-17T10:28:49;3.30;;;2.30;;
2029;SDS011;1020;48.854;8.830;2022-10-17T10:31:23;2.20;;;2.00;;
2029;SDS011;1020;48.854;8.830;2022-10-17T10:33:53;2.60;;;1.80;;
2029;SDS011;1020;48.854;8.830;2022-10-17T10:36:24;2.40;;;1.80;;
2029;SDS011;1020;48.854;8.830;2022-10-17T10:38:51;1.60;;;1.50;;
2029;SDS011;1020;48.854;8.830;2022-10-17T10:41:19;1.77;;;1.67;;
2029;SDS011;1020;48.854;8.830;2022-10-17T10:43:47;1.70;;;1.60;;
2029;SDS011;1020;48.854;8.830;2022-10-17T10:46:16;1.43;;;1.33;;
2029;SDS011;1020;48.854;8.830;2022-10-17T10:48:52;1.90;;;1.43;;
2029;SDS011;1020;48.854;8.830;2022-10-17T10:51:25;3.03;;;1.80;;
2029;SDS011;1020;48.854;8.830;2022-10-17T10:53:55;2.77;;;1.70;;
2029;SDS011;1020;48.854;8.830;2022-10-17T10:56:30;1.40;;;1.20;;
2029;SDS011;1020;48.854;8.830;2022-10-17T10:59:03;2.23;;;1.63;;
2029;SDS011;1020;48.854;8.830;2022-10-17T11:01:37;3.67;;;2.20;;
2029;SDS011;1020;48.854;8.830;2022-10-17T11:04:14;1.83;;;1.73;;
2029;SDS011;1020;48.854;8.830;2022-10-17T11:06:48;2.47;;;2.20;;
2029;SDS011;1020;48.854;8.830;2022-10-17T11:09:23;3.00;;;1.70;;
2029;SDS011;1020;48.854;8.830;2022-10-17T11:11:57;3.07;;;1.60;;
2029;SDS011;1020;48.854;8.830;2022-10-17T11:14:31;3.20;;;1.80;;
2029;SDS011;1020;48.854;8.830;2022-10-17T11:17:07;2.80;;;2.27;;
2029;SDS011;1020;48.854;8.830;2022-10-17T11:19:40;2.80;;;2.17;;
2029;SDS011;1020;48.854;8.830;2022-10-17T11:22:14;10.63;;;1.70;;
2029;SDS011;1020;48.854;8.830;2022-10-17T11:24:45;1.83;;;1.73;;
2029;SDS011;1020;48.854;8.830;2022-10-17T11:27:21;2.40;;;1.70;;
2029;SDS011;1020;48.854;8.830;2022-10-17T11:29:48;1.93;;;1.50;;
2029;SDS011;1020;48.854;8.830;2022-10-17T11:32:17;4.97;;;1.93;;
2029;SDS011;1020;48.854;8.830;2022-10-17T11:34:49;2.80;;;1.70;;
2029;SDS011;1020;48.854;8.830;2022-10-17T11:37:24;1.93;;;1.80;;
2029;SDS011;1020;48.854;8.830;2022-10-17T11:39:57;2.60;;;1.53;;
2029;SDS011;1020;48.854;8.830;2022-10-17T11:42:29;2.23;;;1.47;;
2029;SDS011;1020;48.854;8.830;2022-10-17T11:45:00;1.90;;;1.57;;
2029;SDS011;1020;48.854;8.830;2022-10-17T11:47:33;2.33;;;1.80;;
2029;SDS011;1020;48.854;8.830;2022-10-17T11:50:04;1.70;;;1.53;;
2029;SDS011;1020;48.854;8.830;2022-10-17T11:52:45;2.90;;;2.00;;
2029;SDS011;1020;48.854;8.830;2022-10-17T11:55:16;2.47;;;2.27;;
2029;SDS011;1020;48.854;8.830;2022-10-17T11:57:51;3.80;;;2.20;;
2029;SDS011;1020;48.854;8.830;2022-10-17T12:00:29;4.80;;;1.70;;
2029;SDS011;1020;48.854;8.830;2022-10-17T12:03:06;2.30;;;1.80;;
2029;SDS011;1020;48.854;8.830;2022-10-17T12:05:47;2.10;;;2.00;;
2029;SDS011;1020;48.854;8.830;2022-10-17T12:08:22;1.80;;;1.70;;
2029;SDS011;1020;48.854;8.830;2022-10-17T12:10:57;4.23;;;1.60;;
2029;SDS011;1020;48.854;8.830;2022-10-17T12:13:48;1.80;;;1.70;;
2029;SDS011;1020;48.854;8.830;2022-10-17T12:16:36;2.60;;;1.83;;
2029;SDS011;1020;48.854;8.830;2022-10-17T12:19:15;1.63;;;1.40;;
2029;SDS011;1020;48.854;8.830;2022-10-17T12:21:53;2.17;;;2.00;;
2029;SDS011;1020;48.854;8.830;2022-10-17T12:24:32;3.17;;;1.97;;
2029;SDS011;1020;48.854;8.830;2022-10-17T12:27:20;2.90;;;1.60;;
2029;SDS011;1020;48.854;8.830;2022-10-17T12:30:02;2.33;;;1.60;;
2029;SDS011;1020;48.854;8.830;2022-10-17T12:32:32;6.17;;;1.80;;
2029;SDS011;1020;48.854;8.830;2022-10-17T12:34:59;3.73;;;1.73;;
2029;SDS011;1020;48.854;8.830;2022-10-17T12:43:46;2.30;;;1.60;;
2029;SDS011;1020;48.854;8.830;2022-10-17T12:55:13;2.17;;;1.57;;
2029;SDS011;1020;48.854;8.830;2022-10-17T12:57:51;2.50;;;1.40;;
2029;SDS011;1020;48.854;8.830;2022-10-17T13:00:23;3.83;;;1.60;;
2029;SDS011;1020;48.854;8.830;2022-10-17T13:02:55;1.50;;;1.40;;
2029;SDS011;1020;48.854;8.830;2022-10-17T13:05:31;5.40;;;1.50;;
2029;SDS011;1020;48.854;8.830;2022-10-17T13:08:01;2.07;;;1.90;;
2029;SDS011;1020;48.854;8.830;2022-10-17T13:10:31;1.67;;;1.57;;
2029;SDS011;1020;48.854;8.830;2022-10-17T13:13:05;2.53;;;1.30;;
2029;SDS011;1020;48.854;8.830;2022-10-17T13:15:37;1.93;;;1.50;;
2029;SDS011;1020;48.854;8.830;2022-10-17T13:18:04;2.30;;;1.63;;
2029;SDS011;1020;48.854;8.830;2022-10-17T13:20:31;2.10;;;1.53;;
2029;SDS011;1020;48.854;8.830;2022-10-17T13:22:58;2.30;;;1.73;;
2029;SDS011;1020;48.854;8.830;2022-10-17T13:25:25;2.40;;;1.90;;
2029;SDS011;1020;48.854;8.830;2022-10-17T13:28:06;3.10;;;1.67;;
2029;SDS011;1020;48.854;8.830;2022-10-17T13:30:37;1.97;;;1.70;;
2029;SDS011;1020;48.854;8.830;2022-10-17T13:33:15;1.43;;;1.30;;
2029;SDS011;1020;48.854;8.830;2022-10-17T13:35:53;2.10;;;1.63;;
2029;SDS011;1020;48.854;8.830;2022-10-17T13:38:20;1.87;;;1.77;;
2029;SDS011;1020;48.854;8.830;2022-10-17T13:40:51;3.80;;;2.60;;
2029;SDS011;1020;48.854;8.830;2022-10-17T13:43:19;2.37;;;1.43;;
2029;SDS011;1020;48.854;8.830;2022-10-17T13:45:49;4.13;;;2.40;;
2029;SDS011;1020;48.854;8.830;2022-10-17T13:48:18;2.70;;;1.93;;
2029;SDS011;1020;48.854;8.830;2022-10-17T13:50:47;2.13;;;1.70;;
2029;SDS011;1020;48.854;8.830;2022-10-17T13:53:17;1.83;;;1.73;;
2029;SDS011;1020;48.854;8.830;2022-10-17T13:55:53;2.70;;;1.73;;
2029;SDS011;1020;48.854;8.830;2022-10-17T13:58:29;2.87;;;2.40;;
2029;SDS011;1020;48.854;8.830;2022-10-17T14:00:59;2.00;;;1.80;;
2029;SDS011;1020;48.854;8.830;2022-10-17T14:03:26;2.57;;;1.63;;
2029;SDS011;1020;48.854;8.830;2022-10-17T14:06:00;2.70;;;1.50;;
2029;SDS011;1020;48.854;8.830;2022-10-17T14:08:31;1.77;;;1.67;;
2029;SDS011;1020;48.854;8.830;2022-10-17T14:10:59;2.67;;;1.70;;
2029;SDS011;1020;48.854;8.830;2022-10-17T14:13:28;2.83;;;1.80;;
2029;SDS011;1020;48.854;8.830;2022-10-17T14:15:58;2.50;;;1.77;;
2029;SDS011;1020;48.854;8.830;2022-10-17T14:18:28;2.73;;;1.80;;
2029;SDS011;1020;48.854;8.830;2022-10-17T14:20:56;2.73;;;1.83;;
2029;SDS011;1020;48.854;8.830;2022-10-17T14:23:34;3.60;;;1.70;;
2029;SDS011;1020;48.854;8.830;2022-10-17T14:26:08;2.70;;;1.80;;
2029;SDS011;1020;48.854;8.830;2022-10-17T14:28:39;2.43;;;1.60;;
2029;SDS011;1020;48.854;8.830;2022-10-17T14:31:08;1.87;;;1.73;;
2029;SDS011;1020;48.854;8.830;2022-10-17T14:33:46;2.93;;;1.50;;
2029;SDS011;1020;48.854;8.830;2022-10-17T14:36:14;2.63;;;1.90;;
2029;SDS011;1020;48.854;8.830;2022-10-17T14:38:45;1.87;;;1.63;;
2029;SDS011;1020;48.854;8.830;2022-10-17T14:41:14;1.80;;;1.70;;
2029;SDS011;1020;48.854;8.830;2022-10-17T14:43:52;3.50;;;1.83;;
2029;SDS011;1020;48.854;8.830;2022-10-17T14:46:21;1.90;;;1.70;;
2029;SDS011;1020;48.854;8.830;2022-10-17T14:48:52;1.70;;;1.60;;
2029;SDS011;1020;48.854;8.830;2022-10-17T14:51:20;2.70;;;1.60;;
2029;SDS011;1020;48.854;8.830;2022-10-17T14:54:04;2.50;;;2.00;;
2029;SDS011;1020;48.854;8.830;2022-10-17T14:56:47;4.53;;;1.77;;
2029;SDS011;1020;48.854;8.830;2022-10-17T14:59:17;1.60;;;1.50;;
2029;SDS011;1020;48.854;8.830;2022-10-17T15:01:46;2.10;;;1.63;;
2029;SDS011;1020;48.854;8.830;2022-10-17T15:04:13;3.00;;;2.00;;
2029;SDS011;1020;48.854;8.830;2022-10-17T15:06:40;4.87;;;1.80;;
2029;SDS011;1020;48.854;8.830;2022-10-17T15:09:07;2.80;;;1.57;;
2029;SDS011;1020;48.854;8.830;2022-10-17T15:11:35;2.33;;;1.53;;
2029;SDS011;1020;48.854;8.830;2022-10-17T15:14:01;3.57;;;1.80;;
2029;SDS011;1020;48.854;8.830;2022-10-17T15:16:30;2.40;;;2.17;;
2029;SDS011;1020;48.854;8.830;2022-10-17T15:18:58;2.43;;;2.13;;
2029;SDS011;1020;48.854;8.830;2022-10-17T15:21:26;3.03;;;2.03;;
2029;SDS011;1020;48.854;8.830;2022-10-17T15:23:53;4.83;;;1.80;;
2029;SDS011;1020;48.854;8.830;2022-10-17T15:26:21;1.53;;;1.33;;
2029;SDS011;1020;48.854;8.830;2022-10-17T15:28:49;2.20;;;1.97;;
2029;SDS011;1020;48.854;8.830;2022-10-17T15:31:17;2.50;;;1.93;;
2029;SDS011;1020;48.854;8.830;2022-10-17T15:33:47;1.80;;;1.70;;
2029;SDS011;1020;48.854;8.830;2022-10-17T15:36:16;2.13;;;1.93;;
2029;SDS011;1020;48.854;8.830;2022-10-17T15:38:45;1.60;;;1.50;;
2029;SDS011;1020;48.854;8.830;2022-10-17T15:41:12;1.60;;;1.50;;
2029;SDS011;1020;48.854;8.830;2022-10-17T15:43:39;2.00;;;1.90;;
2029;SDS011;1020;48.854;8.830;2022-10-17T15:46:09;3.90;;;1.73;;
2029;SDS011;1020;48.854;8.830;2022-10-17T15:48:38;2.50;;;1.90;;
2029;SDS011;1020;48.854;8.830;2022-10-17T15:51:06;1.93;;;1.80;;
2029;SDS011;1020;48.854;8.830;2022-10-17T15:53:33;3.03;;;1.50;;
2029;SDS011;1020;48.854;8.830;2022-10-17T15:56:00;3.43;;;2.03;;